Home > Products > Valid Products > TAF

000
FTUS45 KSLC 092221 AAA
TAFENV
TAF AMD
KENV 092221Z 0922/1018 VRB04KT 6SM BR BCFG BKN010
      AMD LTD TO CLD VIS AND WIND=



000
FTUS45 KSLC 092157 AAA
TAFPVU
TAF AMD
KPVU 092157Z 0922/1018 VRB05KT 4SM HZ SKC
     FM100600 VRB03KT 2SM BR BCFG SCT002
     FM101100 00000KT 1/4SM FG VV002=



000
FTUS45 KSLC 092157 AAA
TAFPVU
TAF AMD
KPVU 092157Z 0922/1018 VRB05KT 4SM HZ SKC
     FM100600 VRB03KT 2SM BR BCFG SCT002
     FM101100 00000KT 1/4SM FG VV002=



000
FTUS45 KSLC 092108 AAB
TAFSLC
TAF AMD
KSLC 092108Z 0921/1024 33006KT 3SM HZ SKC
     FM100300 15004KT 3SM BR SKC
     FM100900 15004KT 1SM BR BCFG FEW002
     FM101800 33004KT 3SM HZ SCT200=



000
FTUS45 KSLC 091901 AAA
TAFOGD
TAF AMD
KOGD 091901Z 0919/1018 30005KT 5SM HZ SKC
     FM100200 17006KT 5SM HZ SKC
     FM101000 17006KT 3SM BR BCFG FEW002=



000
FTUS45 KSLC 091901 AAA
TAFOGD
TAF AMD
KOGD 091901Z 0919/1018 30005KT 5SM HZ SKC
     FM100200 17006KT 5SM HZ SKC
     FM101000 17006KT 3SM BR BCFG FEW002=



000
FTUS45 KSLC 091901 AAA
TAFOGD
TAF AMD
KOGD 091901Z 0919/1018 30005KT 5SM HZ SKC
     FM100200 17006KT 5SM HZ SKC
     FM101000 17006KT 3SM BR BCFG FEW002=



000
FTUS45 KSLC 091735
TAFBCE
TAF
KBCE 091735Z 0918/1018 35007KT P6SM SKC
     FM100200 28008KT P6SM SKC=



000
FTUS45 KSLC 091735
TAFENV
TAF
KENV 091735Z 0918/1018 VRB04KT 5SM BR BCFG BKN008
      AMD LTD TO CLD VIS AND WIND=



000
FTUS45 KSLC 091735
TAFLGU
TAF
KLGU 091735Z 0918/1018 VRB03KT 2SM BR BKN005
     FM092000 VRB04KT 4SM BR SCT005
     FM100300 00000KT 1SM BR BCFG BKN005
     FM100500 00000KT 1/4SM FZFG VV001=



000
FTUS45 KSLC 091735
TAFBCE
TAF
KBCE 091735Z 0918/1018 35007KT P6SM SKC
     FM100200 28008KT P6SM SKC=



000
FTUS45 KSLC 091735
TAFSGU
TAF
KSGU 091735Z 0918/1018 VRB05KT P6SM SKC
      AMD LTD TO CLD VIS AND WIND=



000
FTUS45 KSLC 091735
TAFSLC
TAF
KSLC 091735Z 0918/1024 15004KT 4SM BR BCFG SKC
     FM091900 33006KT 5SM HZ SKC
     FM100300 15004KT 3SM BR SKC
     FM101000 15004KT 1SM BR BCFG FEW002
     FM101800 33004KT 3SM HZ SCT200=



000
FTUS45 KSLC 091735
TAFPVU
TAF
KPVU 091735Z 0918/1018 VRB03KT 2SM BR BCFG SKC
     FM092000 VRB05KT 6SM HZ SKC
     FM100600 VRB03KT 3SM BR BCFG SCT002
     FM101100 00000KT 1/4SM FG VV002=



000
FTUS45 KSLC 091735
TAFLGU
TAF
KLGU 091735Z 0918/1018 VRB03KT 2SM BR BKN005
     FM092000 VRB04KT 4SM BR SCT005
     FM100300 00000KT 1SM BR BCFG BKN005
     FM100500 00000KT 1/4SM FZFG VV001=



000
FTUS45 KSLC 091735
TAFSLC
TAF
KSLC 091735Z 0918/1024 15004KT 4SM BR BCFG SKC
     FM091900 33006KT 5SM HZ SKC
     FM100300 15004KT 3SM BR SKC
     FM101000 15004KT 1SM BR BCFG FEW002
     FM101800 33004KT 3SM HZ SCT200=



000
FTUS45 KSLC 091735
TAFSGU
TAF
KSGU 091735Z 0918/1018 VRB05KT P6SM SKC
      AMD LTD TO CLD VIS AND WIND=



000
FTUS45 KSLC 091735
TAFOGD
TAF
KOGD 091735Z 0918/1018 30005KT 6SM HZ SKC
     FM100200 17006KT 6SM HZ SKC
     FM101000 17006KT 3SM BR BCFG FEW002=



000
FTUS45 KSLC 091735
TAFCDC
TAF
KCDC 091735Z 0918/1018 VRB04KT P6SM SKC=



000
FTUS45 KSLC 091735
TAFENV
TAF
KENV 091735Z 0918/1018 VRB04KT 5SM BR BCFG BKN008
      AMD LTD TO CLD VIS AND WIND=



000
FTUS45 KSLC 091735
TAFCDC
TAF
KCDC 091735Z 0918/1018 VRB04KT P6SM SKC=



000
FTUS45 KSLC 091735
TAFPVU
TAF
KPVU 091735Z 0918/1018 VRB03KT 2SM BR BCFG SKC
     FM092000 VRB05KT 6SM HZ SKC
     FM100600 VRB03KT 3SM BR BCFG SCT002
     FM101100 00000KT 1/4SM FG VV002=



000
FTUS45 KSLC 091735
TAFENV
TAF
KENV 091735Z 0918/1018 VRB04KT 5SM BR BCFG BKN008
      AMD LTD TO CLD VIS AND WIND=



000
FTUS45 KSLC 091735
TAFLGU
TAF
KLGU 091735Z 0918/1018 VRB03KT 2SM BR BKN005
     FM092000 VRB04KT 4SM BR SCT005
     FM100300 00000KT 1SM BR BCFG BKN005
     FM100500 00000KT 1/4SM FZFG VV001=



000
FTUS45 KSLC 091735
TAFCDC
TAF
KCDC 091735Z 0918/1018 VRB04KT P6SM SKC=



000
FTUS45 KSLC 091735
TAFSGU
TAF
KSGU 091735Z 0918/1018 VRB05KT P6SM SKC
      AMD LTD TO CLD VIS AND WIND=



000
FTUS45 KSLC 091735
TAFPVU
TAF
KPVU 091735Z 0918/1018 VRB03KT 2SM BR BCFG SKC
     FM092000 VRB05KT 6SM HZ SKC
     FM100600 VRB03KT 3SM BR BCFG SCT002
     FM101100 00000KT 1/4SM FG VV002=



000
FTUS45 KSLC 091735
TAFOGD
TAF
KOGD 091735Z 0918/1018 30005KT 6SM HZ SKC
     FM100200 17006KT 6SM HZ SKC
     FM101000 17006KT 3SM BR BCFG FEW002=



000
FTUS45 KSLC 091735
TAFBCE
TAF
KBCE 091735Z 0918/1018 35007KT P6SM SKC
     FM100200 28008KT P6SM SKC=



000
FTUS45 KSLC 091735
TAFSLC
TAF
KSLC 091735Z 0918/1024 15004KT 4SM BR BCFG SKC
     FM091900 33006KT 5SM HZ SKC
     FM100300 15004KT 3SM BR SKC
     FM101000 15004KT 1SM BR BCFG FEW002
     FM101800 33004KT 3SM HZ SCT200=



000
FTUS45 KSLC 091735
TAFOGD
TAF
KOGD 091735Z 0918/1018 30005KT 6SM HZ SKC
     FM100200 17006KT 6SM HZ SKC
     FM101000 17006KT 3SM BR BCFG FEW002=



000
FTUS45 KSLC 091701 AAB
TAFENV
TAF AMD
KENV 091701Z 0917/1012 VRB04KT P6SM SKC
      TEMPO 0917/0919 5SM BR BCFG BKN008
      AMD LTD TO CLD VIS AND WIND=



000
FTUS45 KSLC 091701 AAB
TAFENV
TAF AMD
KENV 091701Z 0917/1012 VRB04KT P6SM SKC
      TEMPO 0917/0919 5SM BR BCFG BKN008
      AMD LTD TO CLD VIS AND WIND=



000
FTUS45 KSLC 091701 AAB
TAFENV
TAF AMD
KENV 091701Z 0917/1012 VRB04KT P6SM SKC
      TEMPO 0917/0919 5SM BR BCFG BKN008
      AMD LTD TO CLD VIS AND WIND=



000
FTUS45 KSLC 091519 AAA
TAFENV
TAF AMD
KENV 091519Z 0915/1012 VRB04KT P6SM SKC
      TEMPO 0915/0917 5SM BR BCFG BKN012
      AMD LTD TO CLD VIS AND WIND=



000
FTUS45 KSLC 091508 AAB
TAFPVU
TAF AMD
KPVU 091508Z 0915/1012 00000KT 2SM BR BCFG SKC
      TEMPO 0915/0918 1/4SM FZFG VV001
     FM092000 20005KT 6SM HZ SKC=



000
FTUS45 KSLC 091508 AAB
TAFPVU
TAF AMD
KPVU 091508Z 0915/1012 00000KT 2SM BR BCFG SKC
      TEMPO 0915/0918 1/4SM FZFG VV001
     FM092000 20005KT 6SM HZ SKC=



000
FTUS45 KSLC 091508 AAB
TAFPVU
TAF AMD
KPVU 091508Z 0915/1012 00000KT 2SM BR BCFG SKC
      TEMPO 0915/0918 1/4SM FZFG VV001
     FM092000 20005KT 6SM HZ SKC=



000
FTUS45 KSLC 091505 AAB
TAFSLC
TAF AMD
KSLC 091505Z 0915/1018 15004KT 4SM BR BCFG SKC
     FM091900 33006KT 5SM HZ SKC
     FM100300 15004KT 3SM BR BCFG SKC=



000
FTUS45 KSLC 091249 AAA
TAFOGD
TAF AMD
KOGD 091249Z 0913/1012 VRB03KT 4SM BR SKC
     FM091600 14004KT P6SM SKC
     FM091900 30004KT 4SM BR SKC
     FM100300 17004KT 6SM HZ SKC=



000
FTUS45 KSLC 091249 AAA
TAFOGD
TAF AMD
KOGD 091249Z 0913/1012 VRB03KT 4SM BR SKC
     FM091600 14004KT P6SM SKC
     FM091900 30004KT 4SM BR SKC
     FM100300 17004KT 6SM HZ SKC=



000
FTUS45 KSLC 091249 AAA
TAFOGD
TAF AMD
KOGD 091249Z 0913/1012 VRB03KT 4SM BR SKC
     FM091600 14004KT P6SM SKC
     FM091900 30004KT 4SM BR SKC
     FM100300 17004KT 6SM HZ SKC=



000
FTUS45 KSLC 091151 AAA
TAFPVU
TAF AMD
KPVU 091151Z 0912/1012 00000KT 2SM BR BCFG SKC
      TEMPO 0912/0915 1/4SM FZFG VV001
     FM092000 20005KT 6SM HZ SKC=



000
FTUS45 KSLC 091131
TAFOGD
TAF
KOGD 091131Z 0912/1012 17005KT P6SM SKC
     FM091900 30004KT 4SM BR SKC
     FM100300 17004KT 6SM HZ SKC=



000
FTUS45 KSLC 091131
TAFSGU
TAF
KSGU 091131Z 0912/1012 VRB05KT P6SM SKC
      AMD LTD TO CLD VIS AND WIND=



000
FTUS45 KSLC 091131
TAFSLC
TAF
KSLC 091131Z 0912/1018 15004KT 5SM BR BCFG SKC
     FM091900 33006KT 5SM HZ SKC
     FM100300 15004KT 3SM BR BCFG SKC=



000
FTUS45 KSLC 091131
TAFBCE
TAF
KBCE 091131Z 0912/1012 28008KT P6SM SKC=



000
FTUS45 KSLC 091131
TAFCDC
TAF
KCDC 091131Z 0912/1012 VRB04KT P6SM SKC=



000
FTUS45 KSLC 091131
TAFPVU
TAF
KPVU 091131Z 0912/1012 00000KT 3SM BR BCFG SKC
     FM092000 20005KT 6SM HZ SKC=



000
FTUS45 KSLC 091131
TAFLGU
TAF
KLGU 091131Z 0912/1012 00000KT 1/4SM FZFG VV002
     FM091900 35004KT 2SM BR SCT005
     FM092000 35004KT 3SM BR SKC
     FM100300 00000KT 1SM BR BCFG SKC
     FM100500 00000KT 1/4SM FZFG VV001=



000
FTUS45 KSLC 091131
TAFENV
TAF
KENV 091131Z 0912/1012 VRB04KT P6SM SKC
      AMD LTD TO CLD VIS AND WIND=



000
FTUS45 KSLC 091131
TAFENV
TAF
KENV 091131Z 0912/1012 VRB04KT P6SM SKC
      AMD LTD TO CLD VIS AND WIND=



000
FTUS45 KSLC 091131
TAFENV
TAF
KENV 091131Z 0912/1012 VRB04KT P6SM SKC
      AMD LTD TO CLD VIS AND WIND=



000
FTUS45 KSLC 091131
TAFSGU
TAF
KSGU 091131Z 0912/1012 VRB05KT P6SM SKC
      AMD LTD TO CLD VIS AND WIND=



000
FTUS45 KSLC 091131
TAFCDC
TAF
KCDC 091131Z 0912/1012 VRB04KT P6SM SKC=



000
FTUS45 KSLC 091131
TAFBCE
TAF
KBCE 091131Z 0912/1012 28008KT P6SM SKC=



000
FTUS45 KSLC 091131
TAFLGU
TAF
KLGU 091131Z 0912/1012 00000KT 1/4SM FZFG VV002
     FM091900 35004KT 2SM BR SCT005
     FM092000 35004KT 3SM BR SKC
     FM100300 00000KT 1SM BR BCFG SKC
     FM100500 00000KT 1/4SM FZFG VV001=



000
FTUS45 KSLC 091131
TAFOGD
TAF
KOGD 091131Z 0912/1012 17005KT P6SM SKC
     FM091900 30004KT 4SM BR SKC
     FM100300 17004KT 6SM HZ SKC=



000
FTUS45 KSLC 091131
TAFSLC
TAF
KSLC 091131Z 0912/1018 15004KT 5SM BR BCFG SKC
     FM091900 33006KT 5SM HZ SKC
     FM100300 15004KT 3SM BR BCFG SKC=



000
FTUS45 KSLC 091131
TAFPVU
TAF
KPVU 091131Z 0912/1012 00000KT 3SM BR BCFG SKC
     FM092000 20005KT 6SM HZ SKC=



000
FTUS45 KSLC 091031 AAA
TAFPVU
TAF AMD
KPVU 091031Z 0911/1006 00000KT 3SM BR SKC
     FM092100 20005KT 6SM HZ SKC=



000
FTUS45 KSLC 091031 AAA
TAFPVU
TAF AMD
KPVU 091031Z 0911/1006 00000KT 3SM BR SKC
     FM092100 20005KT 6SM HZ SKC=



000
FTUS45 KSLC 091030 AAC
TAFSLC
TAF AMD
KSLC 091030Z 0911/1012 15004KT 6SM HZ BCFG SKC
     FM091900 33006KT 5SM HZ SKC
     FM100300 15004KT 3SM BR BCFG SKC=



000
FTUS45 KSLC 091030 AAC
TAFSLC
TAF AMD
KSLC 091030Z 0911/1012 15004KT 6SM HZ BCFG SKC
     FM091900 33006KT 5SM HZ SKC
     FM100300 15004KT 3SM BR BCFG SKC=



000
FTUS45 KSLC 091030 AAC
TAFSLC
TAF AMD
KSLC 091030Z 0911/1012 15004KT 6SM HZ BCFG SKC
     FM091900 33006KT 5SM HZ SKC
     FM100300 15004KT 3SM BR BCFG SKC=



000
FTUS45 KSLC 090845 AAB
TAFSLC
TAF AMD
KSLC 090845Z 0909/1012 15004KT 3SM BR BCFG SKC
     FM091900 33006KT 5SM HZ SKC
     FM100300 15004KT 3SM BR BCFG SKC=



000
FTUS45 KSLC 090845 AAB
TAFSLC
TAF AMD
KSLC 090845Z 0909/1012 15004KT 3SM BR BCFG SKC
     FM091900 33006KT 5SM HZ SKC
     FM100300 15004KT 3SM BR BCFG SKC=



000
FTUS45 KSLC 090845 AAB
TAFSLC
TAF AMD
KSLC 090845Z 0909/1012 15004KT 3SM BR BCFG SKC
     FM091900 33006KT 5SM HZ SKC
     FM100300 15004KT 3SM BR BCFG SKC=



000
FTUS45 KSLC 090829 AAA
TAFOGD
TAF AMD
KOGD 090829Z 0908/1006 17004KT P6SM SKC
     FM091900 30004KT 4SM BR SKC
     FM100300 17004KT 6SM HZ SKC=



000
FTUS45 KSLC 090520
TAFSLC
TAF
KSLC 090520Z 0906/1012 16004KT 4SM BR SKC
     FM090900 15004KT 2SM BR BCFG SKC
     FM091900 33006KT 5SM HZ SKC
     FM100300 15004KT 3SM BR BCFG SKC=



000
FTUS45 KSLC 090520
TAFCDC
TAF
KCDC 090520Z 0906/1006 VRB04KT P6SM SKC=



000
FTUS45 KSLC 090520
TAFSLC
TAF
KSLC 090520Z 0906/1012 16004KT 4SM BR SKC
     FM090900 15004KT 2SM BR BCFG SKC
     FM091900 33006KT 5SM HZ SKC
     FM100300 15004KT 3SM BR BCFG SKC=



000
FTUS45 KSLC 090520
TAFLGU
TAF
KLGU 090520Z 0906/1006 00000KT 1/4SM FZFG VV001
     FM091900 35004KT 2SM BR SCT005
     FM092000 35004KT 3SM BR SKC
     FM100300 00000KT 1SM BR SKC=



000
FTUS45 KSLC 090520
TAFSLC
TAF
KSLC 090520Z 0906/1012 16004KT 4SM BR SKC
     FM090900 15004KT 2SM BR BCFG SKC
     FM091900 33006KT 5SM HZ SKC
     FM100300 15004KT 3SM BR BCFG SKC=



000
FTUS45 KSLC 090520
TAFENV
TAF
KENV 090520Z 0906/1006 VRB04KT P6SM SKC
      AMD LTD TO CLD VIS AND WIND=



000
FTUS45 KSLC 090520
TAFSGU
TAF
KSGU 090520Z 0906/1006 VRB05KT P6SM SKC
      AMD LTD TO CLD VIS AND WIND=



000
FTUS45 KSLC 090520
TAFCDC
TAF
KCDC 090520Z 0906/1006 VRB04KT P6SM SKC=



000
FTUS45 KSLC 090520
TAFCDC
TAF
KCDC 090520Z 0906/1006 VRB04KT P6SM SKC=



000
FTUS45 KSLC 090520
TAFLGU
TAF
KLGU 090520Z 0906/1006 00000KT 1/4SM FZFG VV001
     FM091900 35004KT 2SM BR SCT005
     FM092000 35004KT 3SM BR SKC
     FM100300 00000KT 1SM BR SKC=



000
FTUS45 KSLC 090520
TAFBCE
TAF
KBCE 090520Z 0906/1006 31008KT P6SM SKC=



000
FTUS45 KSLC 090520
TAFPVU
TAF
KPVU 090520Z 0906/1006 00000KT 3SM BR SKC
     FM091000 00000KT 1SM BR BCFG FEW002
     FM091700 00000KT 3SM BR SKC
     FM092100 20005KT 6SM HZ SKC=



000
FTUS45 KSLC 090520
TAFBCE
TAF
KBCE 090520Z 0906/1006 31008KT P6SM SKC=



000
FTUS45 KSLC 090520
TAFSGU
TAF
KSGU 090520Z 0906/1006 VRB05KT P6SM SKC
      AMD LTD TO CLD VIS AND WIND=



000
FTUS45 KSLC 090520
TAFLGU
TAF
KLGU 090520Z 0906/1006 00000KT 1/4SM FZFG VV001
     FM091900 35004KT 2SM BR SCT005
     FM092000 35004KT 3SM BR SKC
     FM100300 00000KT 1SM BR SKC=



000
FTUS45 KSLC 090520
TAFBCE
TAF
KBCE 090520Z 0906/1006 31008KT P6SM SKC=



000
FTUS45 KSLC 090520
TAFSGU
TAF
KSGU 090520Z 0906/1006 VRB05KT P6SM SKC
      AMD LTD TO CLD VIS AND WIND=



000
FTUS45 KSLC 090520
TAFPVU
TAF
KPVU 090520Z 0906/1006 00000KT 3SM BR SKC
     FM091000 00000KT 1SM BR BCFG FEW002
     FM091700 00000KT 3SM BR SKC
     FM092100 20005KT 6SM HZ SKC=



000
FTUS45 KSLC 090520
TAFPVU
TAF
KPVU 090520Z 0906/1006 00000KT 3SM BR SKC
     FM091000 00000KT 1SM BR BCFG FEW002
     FM091700 00000KT 3SM BR SKC
     FM092100 20005KT 6SM HZ SKC=



000
FTUS45 KSLC 090520
TAFOGD
TAF
KOGD 090520Z 0906/1006 00000KT 3SM BR SKC
     FM090900 00000KT 2SM BR SKC
     FM091500 17004KT P6SM SKC
     FM091900 30004KT 4SM BR SKC
     FM100300 17004KT 6SM HZ SKC=



000
FTUS45 KSLC 090520
TAFENV
TAF
KENV 090520Z 0906/1006 VRB04KT P6SM SKC
      AMD LTD TO CLD VIS AND WIND=



000
FTUS45 KSLC 090520
TAFOGD
TAF
KOGD 090520Z 0906/1006 00000KT 3SM BR SKC
     FM090900 00000KT 2SM BR SKC
     FM091500 17004KT P6SM SKC
     FM091900 30004KT 4SM BR SKC
     FM100300 17004KT 6SM HZ SKC=



000
FTUS45 KSLC 090520
TAFENV
TAF
KENV 090520Z 0906/1006 VRB04KT P6SM SKC
      AMD LTD TO CLD VIS AND WIND=



000
FTUS45 KSLC 090520
TAFOGD
TAF
KOGD 090520Z 0906/1006 00000KT 3SM BR SKC
     FM090900 00000KT 2SM BR SKC
     FM091500 17004KT P6SM SKC
     FM091900 30004KT 4SM BR SKC
     FM100300 17004KT 6SM HZ SKC=



000
FTUS45 KSLC 090257 AAA
TAFOGD
TAF AMD
KOGD 090257Z 0903/0924 30004KT 6SM HZ FEW200
     FM090500 17004KT 3SM BR SKC
     FM090900 VRB03KT 2SM BR SKC
     FM091600 17004KT 5SM HZ SKC=



000
FTUS45 KSLC 090257 AAA
TAFSLC
TAF AMD
KSLC 090257Z 0903/1006 33006KT 4SM HZ SCT200
     FM090400 16004KT 4SM HZ FEW200
     FM090900 15004KT 2SM BR BCFG SKC
     FM091600 33006KT 5SM HZ SKC=



000
FTUS45 KSLC 090257 AAA
TAFSLC
TAF AMD
KSLC 090257Z 0903/1006 33006KT 4SM HZ SCT200
     FM090400 16004KT 4SM HZ FEW200
     FM090900 15004KT 2SM BR BCFG SKC
     FM091600 33006KT 5SM HZ SKC=



000
FTUS45 KSLC 082327
TAFSGU
TAF
KSGU 082327Z 0900/0924 VRB05KT P6SM SKC
     FM090400 26006KT P6SM SKC
      AMD LTD TO CLD VIS AND WIND=



000
FTUS45 KSLC 082327
TAFPVU
TAF
KPVU 082327Z 0900/0924 VRB04KT 6SM HZ FEW200
     FM090600 00000KT 3SM BR SKC
     FM090900 00000KT 1SM BR BCFG FEW002
     FM091600 00000KT 3SM BR SKC
     FM092100 20005KT 6SM HZ FEW180=



000
FTUS45 KSLC 082327
TAFOGD
TAF
KOGD 082327Z 0900/0924 30004KT 5SM HZ FEW200
     FM090300 17004KT 3SM BR SKC
     FM090900 VRB03KT 2SM BR SKC
     FM091600 17004KT 5SM HZ SKC=



000
FTUS45 KSLC 082327
TAFOGD
TAF
KOGD 082327Z 0900/0924 30004KT 5SM HZ FEW200
     FM090300 17004KT 3SM BR SKC
     FM090900 VRB03KT 2SM BR SKC
     FM091600 17004KT 5SM HZ SKC=



000
FTUS45 KSLC 082327
TAFBCE
TAF
KBCE 082327Z 0900/0924 03008KT P6SM SKC
     FM090500 31010KT P6SM FEW200=



000
FTUS45 KSLC 082327
TAFPVU
TAF
KPVU 082327Z 0900/0924 VRB04KT 6SM HZ FEW200
     FM090600 00000KT 3SM BR SKC
     FM090900 00000KT 1SM BR BCFG FEW002
     FM091600 00000KT 3SM BR SKC
     FM092100 20005KT 6SM HZ FEW180=



000
FTUS45 KSLC 082327
TAFBCE
TAF
KBCE 082327Z 0900/0924 03008KT P6SM SKC
     FM090500 31010KT P6SM FEW200=



000
FTUS45 KSLC 082327
TAFSGU
TAF
KSGU 082327Z 0900/0924 VRB05KT P6SM SKC
     FM090400 26006KT P6SM SKC
      AMD LTD TO CLD VIS AND WIND=



000
FTUS45 KSLC 082327
TAFCDC
TAF
KCDC 082327Z 0900/0924 24006KT P6SM SKC
     FM090800 05005KT P6SM SKC=



000
FTUS45 KSLC 082327
TAFLGU
TAF
KLGU 082327Z 0900/0924 VRB03KT 4SM BR FEW005 SCT020
     FM090200 15004KT 2SM BR SCT008
     FM090300 00000KT 1/4SM FZFG VV001
     FM091800 35004KT 2SM BR SCT005=



000
FTUS45 KSLC 082327
TAFSLC
TAF
KSLC 082327Z 0900/1006 33006KT 4SM HZ SCT200
     FM090400 16004KT 4SM HZ FEW200
     FM090900 15004KT 2SM BR BCFG SKC
     FM091600 33006KT 5SM HZ SKC=



000
FTUS45 KSLC 082327
TAFLGU
TAF
KLGU 082327Z 0900/0924 VRB03KT 4SM BR FEW005 SCT020
     FM090200 15004KT 2SM BR SCT008
     FM090300 00000KT 1/4SM FZFG VV001
     FM091800 35004KT 2SM BR SCT005=



000
FTUS45 KSLC 082327
TAFSLC
TAF
KSLC 082327Z 0900/1006 33006KT 4SM HZ SCT200
     FM090400 16004KT 4SM HZ FEW200
     FM090900 15004KT 2SM BR BCFG SKC
     FM091600 33006KT 5SM HZ SKC=



000
FTUS45 KSLC 082327
TAFENV
TAF
KENV 082327Z 0900/0924 16005KT P6SM SKC
     FM090500 35005KT P6SM FEW200
      AMD LTD TO CLD VIS AND WIND=



000
FTUS45 KSLC 082327
TAFCDC
TAF
KCDC 082327Z 0900/0924 24006KT P6SM SKC
     FM090800 05005KT P6SM SKC=



000
FTUS45 KSLC 082327
TAFENV
TAF
KENV 082327Z 0900/0924 16005KT P6SM SKC
     FM090500 35005KT P6SM FEW200
      AMD LTD TO CLD VIS AND WIND=



000
FTUS45 KSLC 082327
TAFSGU
TAF
KSGU 082327Z 0900/0924 VRB05KT P6SM SKC
     FM090400 26006KT P6SM SKC
      AMD LTD TO CLD VIS AND WIND=



000
FTUS45 KSLC 082327
TAFENV
TAF
KENV 082327Z 0900/0924 16005KT P6SM SKC
     FM090500 35005KT P6SM FEW200
      AMD LTD TO CLD VIS AND WIND=



000
FTUS45 KSLC 082327
TAFOGD
TAF
KOGD 082327Z 0900/0924 30004KT 5SM HZ FEW200
     FM090300 17004KT 3SM BR SKC
     FM090900 VRB03KT 2SM BR SKC
     FM091600 17004KT 5SM HZ SKC=



000
FTUS45 KSLC 082327
TAFCDC
TAF
KCDC 082327Z 0900/0924 24006KT P6SM SKC
     FM090800 05005KT P6SM SKC=



000
FTUS45 KSLC 082327
TAFBCE
TAF
KBCE 082327Z 0900/0924 03008KT P6SM SKC
     FM090500 31010KT P6SM FEW200=



000
FTUS45 KSLC 082327
TAFPVU
TAF
KPVU 082327Z 0900/0924 VRB04KT 6SM HZ FEW200
     FM090600 00000KT 3SM BR SKC
     FM090900 00000KT 1SM BR BCFG FEW002
     FM091600 00000KT 3SM BR SKC
     FM092100 20005KT 6SM HZ FEW180=



000
FTUS45 KSLC 082327
TAFSLC
TAF
KSLC 082327Z 0900/1006 33006KT 4SM HZ SCT200
     FM090400 16004KT 4SM HZ FEW200
     FM090900 15004KT 2SM BR BCFG SKC
     FM091600 33006KT 5SM HZ SKC=



000
FTUS45 KSLC 082327
TAFLGU
TAF
KLGU 082327Z 0900/0924 VRB03KT 4SM BR FEW005 SCT020
     FM090200 15004KT 2SM BR SCT008
     FM090300 00000KT 1/4SM FZFG VV001
     FM091800 35004KT 2SM BR SCT005=



000
FTUS45 KSLC 082040 AAA
TAFOGD
TAF AMD
KOGD 082040Z 0821/0918 30004KT 5SM HZ FEW200
     FM090400 17004KT 3SM BR SKC
     FM090900 VRB03KT 2SM BR SKC
     FM091600 17004KT 5SM HZ SKC=



000
FTUS45 KSLC 082040 AAA
TAFOGD
TAF AMD
KOGD 082040Z 0821/0918 30004KT 5SM HZ FEW200
     FM090400 17004KT 3SM BR SKC
     FM090900 VRB03KT 2SM BR SKC
     FM091600 17004KT 5SM HZ SKC=



000
FTUS45 KSLC 082040 AAA
TAFPVU
TAF AMD
KPVU 082040Z 0821/0918 VRB04KT 6SM HZ FEW200
     FM090500 00000KT 3SM BR SKC
     FM090900 00000KT 1SM BR BCFG FEW002
     FM091600 00000KT 3SM BR SKC=



000
FTUS45 KSLC 082040 AAA
TAFOGD
TAF AMD
KOGD 082040Z 0821/0918 30004KT 5SM HZ FEW200
     FM090400 17004KT 3SM BR SKC
     FM090900 VRB03KT 2SM BR SKC
     FM091600 17004KT 5SM HZ SKC=



000
FTUS45 KSLC 082034 AAA
TAFBCE
TAF AMD
KBCE 082034Z 0821/0918 04012KT P6SM FEW200
     FM090000 33006KT P6SM SKC=



000
FTUS45 KSLC 082034 AAA
TAFBCE
TAF AMD
KBCE 082034Z 0821/0918 04012KT P6SM FEW200
     FM090000 33006KT P6SM SKC=



000
FTUS45 KSLC 081740
TAFSLC
TAF
KSLC 081740Z 0818/0924 33006KT 6SM HZ FEW200
     FM090300 15004KT 4SM BR BCFG SKC
     FM090600 15004KT 2SM BR BCFG SKC
     FM091900 33006KT 5SM HZ SKC=



000
FTUS45 KSLC 081740
TAFLGU
TAF
KLGU 081740Z 0818/0918 00000KT 1/4SM FZFG VV002
     FM081900 VRB03KT 4SM BR FEW005
     FM090300 00000KT 1/4SM FZFG VV001=



000
FTUS45 KSLC 081740
TAFSGU
TAF
KSGU 081740Z 0818/0918 VRB05KT P6SM SKC
      AMD LTD TO CLD VIS AND WIND=



000
FTUS45 KSLC 081740
TAFOGD
TAF
KOGD 081740Z 0818/0918 30004KT P6SM FEW150
     FM090300 17004KT 5SM BR SKC
     FM090900 VRB03KT 2SM BR SKC
     FM091600 17004KT 5SM HZ SKC=



000
FTUS45 KSLC 081740
TAFBCE
TAF
KBCE 081740Z 0818/0918 33008KT P6SM FEW200=



000
FTUS45 KSLC 081740
TAFCDC
TAF
KCDC 081740Z 0818/0918 VRB04KT P6SM SKC=



000
FTUS45 KSLC 081740
TAFPVU
TAF
KPVU 081740Z 0818/0918 VRB04KT 5SM HZ FEW200
     FM090500 00000KT 3SM BR SKC
     FM090900 00000KT 1SM BR BCFG FEW002
     FM091600 00000KT 3SM BR SKC=



000
FTUS45 KSLC 081740
TAFENV
TAF
KENV 081740Z 0818/0918 VRB05KT P6SM SKC
      AMD LTD TO CLD VIS AND WIND=



000
FTUS45 KSLC 081523 AAB
TAFOGD
TAF AMD
KOGD 081523Z 0815/0912 17006KT P6SM SKC
      TEMPO 0815/0817 6SM BR
     FM081800 30004KT 6SM HZ FEW150
     FM090300 17005KT 5SM BR SKC
     FM090900 VRB03KT 2SM BR SKC=



000
FTUS45 KSLC 081502 AAA
TAFBCE
TAF AMD
KBCE 081502Z 0815/0912 28011KT P6SM SKC
     FM081800 34006KT P6SM SKC
     FM090100 33011KT P6SM SKC=



000
FTUS45 KSLC 081429 AAB
TAFSLC
TAF AMD
KSLC 081429Z 0814/0918 15006KT 6SM HZ FEW200
      TEMPO 0814/0816 4SM BR
     FM081800 33006KT 6SM HZ FEW200
     FM090300 15004KT 4SM BR BCFG SKC=



000
FTUS45 KSLC 081421 AAA
TAFOGD
TAF AMD
KOGD 081421Z 0814/0912 17006KT 6SM BR SKC
      TEMPO 0814/0816 4SM BR
     FM081800 30004KT 6SM HZ FEW150
     FM090300 17005KT 5SM BR SKC
     FM090900 VRB03KT 2SM BR SKC=



000
FTUS45 KSLC 081421 AAA
TAFOGD
TAF AMD
KOGD 081421Z 0814/0912 17006KT 6SM BR SKC
      TEMPO 0814/0816 4SM BR
     FM081800 30004KT 6SM HZ FEW150
     FM090300 17005KT 5SM BR SKC
     FM090900 VRB03KT 2SM BR SKC=



000
FTUS45 KSLC 081421 AAA
TAFOGD
TAF AMD
KOGD 081421Z 0814/0912 17006KT 6SM BR SKC
      TEMPO 0814/0816 4SM BR
     FM081800 30004KT 6SM HZ FEW150
     FM090300 17005KT 5SM BR SKC
     FM090900 VRB03KT 2SM BR SKC=



000
FTUS45 KSLC 081416 AAA
TAFPVU
TAF AMD
KPVU 081416Z 0814/0912 00000KT 3SM BR SKC
      TEMPO 0814/0816 1SM BR
     FM081700 26005KT 6SM HZ FEW200
     FM090500 00000KT 3SM BR SKC
     FM091000 00000KT 1SM BR FEW002
      AMD LTD TO CLD VIS AND WIND=



000
FTUS45 KSLC 081122
TAFENV
TAF
KENV 081122Z 0812/0912 VRB05KT P6SM SKC
      AMD LTD TO CLD VIS AND WIND=



000
FTUS45 KSLC 081122
TAFPVU
TAF
KPVU 081122Z 0812/0912 00000KT 5SM BR SKC
     FM081800 26005KT 6SM HZ FEW200
     FM090500 00000KT 3SM BR SKC
     FM091000 00000KT 1SM BR FEW002
      AMD LTD TO CLD VIS AND WIND=



000
FTUS45 KSLC 081122
TAFCDC
TAF
KCDC 081122Z 0812/0912 VRB04KT P6SM SKC=



000
FTUS45 KSLC 081122
TAFLGU
TAF
KLGU 081122Z 0812/0912 00000KT 1/4SM FZFG VV001
     FM081800 VRB03KT 3SM BR FEW003
     FM090300 00000KT 1/4SM FZFG VV001=



000
FTUS45 KSLC 081122
TAFSGU
TAF
KSGU 081122Z 0812/0912 VRB05KT P6SM SKC
      AMD LTD TO CLD VIS AND WIND=



000
FTUS45 KSLC 081122
TAFBCE
TAF
KBCE 081122Z 0812/0912 29009KT P6SM SKC
     FM081800 34006KT P6SM SKC
     FM090100 33011KT P6SM SKC=



000
FTUS45 KSLC 081122
TAFSLC
TAF
KSLC 081122Z 0812/0918 15006KT 5SM BR FEW200
     FM081800 33006KT 6SM HZ FEW200
     FM090300 15004KT 4SM BR BCFG SKC=



000
FTUS45 KSLC 081122
TAFOGD
TAF
KOGD 081122Z 0812/0912 17006KT P6SM SKC
     FM081800 30004KT 6SM HZ FEW150
     FM090300 17005KT 5SM BR SKC
     FM090900 VRB03KT 2SM BR SKC=



000
FTUS45 KSLC 080846 AAA
TAFPVU
TAF AMD
KPVU 080846Z 0809/0906 00000KT P6SM SKC
     FM081100 00000KT 5SM BR SKC
     FM081800 26005KT 6SM HZ FEW200
     FM090500 00000KT 3SM BR SKC
      AMD LTD TO CLD VIS AND WIND=



000
FTUS45 KSLC 080845 AAB
TAFSLC
TAF AMD
KSLC 080845Z 0809/0912 15006KT 5SM BR FEW200
     FM081800 33006KT 6SM HZ FEW200
     FM090300 15004KT 3SM BR SKC=



000
FTUS45 KSLC 080845 AAB
TAFSLC
TAF AMD
KSLC 080845Z 0809/0912 15006KT 5SM BR FEW200
     FM081800 33006KT 6SM HZ FEW200
     FM090300 15004KT 3SM BR SKC=



000
FTUS45 KSLC 080845 AAB
TAFSLC
TAF AMD
KSLC 080845Z 0809/0912 15006KT 5SM BR FEW200
     FM081800 33006KT 6SM HZ FEW200
     FM090300 15004KT 3SM BR SKC=



000
FTUS45 KSLC 080844 AAA
TAFOGD
TAF AMD
KOGD 080844Z 0809/0906 17003KT P6SM SKC
     FM081800 30004KT 6SM HZ FEW150
     FM090300 17005KT 3SM BR SKC=



000
FTUS45 KSLC 080844 AAA
TAFOGD
TAF AMD
KOGD 080844Z 0809/0906 17003KT P6SM SKC
     FM081800 30004KT 6SM HZ FEW150
     FM090300 17005KT 3SM BR SKC=



000
FTUS45 KSLC 080844 AAA
TAFOGD
TAF AMD
KOGD 080844Z 0809/0906 17003KT P6SM SKC
     FM081800 30004KT 6SM HZ FEW150
     FM090300 17005KT 3SM BR SKC=



000
FTUS45 KSLC 080525
TAFOGD
TAF
KOGD 080525Z 0806/0906 17003KT 4SM BR SKC
     FM080900 17003KT 2SM BR SKC
     FM081500 17004KT 5SM BR SCT150
     FM081800 30004KT 6SM HZ FEW150
     FM090300 17005KT 3SM BR SKC=



000
FTUS45 KSLC 080525
TAFSGU
TAF
KSGU 080525Z 0806/0906 01009KT P6SM SKC
     FM080800 VRB05KT P6SM SKC
      AMD LTD TO CLD VIS AND WIND=



000
FTUS45 KSLC 080525
TAFPVU
TAF
KPVU 080525Z 0806/0906 00000KT P6SM FEW200
     FM080800 00000KT 3SM BR FEW200
     FM081800 26005KT 6SM HZ FEW200
     FM090500 00000KT 3SM BR SKC
      AMD LTD TO CLD VIS AND WIND=



000
FTUS45 KSLC 080525
TAFLGU
TAF
KLGU 080525Z 0806/0906 00000KT 2SM BR SCT007
      TEMPO 0806/0807 1/2SM FZFG VV004
     FM080700 00000KT 1/4SM FZFG BKN002
     FM081800 VRB03KT 5SM BR FEW150
     FM090300 00000KT 1/4SM FZFG VV005=



000
FTUS45 KSLC 080525
TAFCDC
TAF
KCDC 080525Z 0806/0906 VRB04KT P6SM SKC=



000
FTUS45 KSLC 080525
TAFBCE
TAF
KBCE 080525Z 0806/0906 33009KT P6SM SKC
     FM081800 34006KT P6SM SKC
     FM090100 33011KT P6SM SKC=



000
FTUS45 KSLC 080525
TAFPVU
TAF
KPVU 080525Z 0806/0906 00000KT P6SM FEW200
     FM080800 00000KT 3SM BR FEW200
     FM081800 26005KT 6SM HZ FEW200
     FM090500 00000KT 3SM BR SKC
      AMD LTD TO CLD VIS AND WIND=



000
FTUS45 KSLC 080525
TAFSLC
TAF
KSLC 080525Z 0806/0912 15006KT 3SM BR FEW200
     FM081800 33006KT 6SM HZ FEW200
     FM090300 15004KT 3SM BR SKC=



000
FTUS45 KSLC 080525
TAFCDC
TAF
KCDC 080525Z 0806/0906 VRB04KT P6SM SKC=



000
FTUS45 KSLC 080525
TAFSGU
TAF
KSGU 080525Z 0806/0906 01009KT P6SM SKC
     FM080800 VRB05KT P6SM SKC
      AMD LTD TO CLD VIS AND WIND=



000
FTUS45 KSLC 080525
TAFSGU
TAF
KSGU 080525Z 0806/0906 01009KT P6SM SKC
     FM080800 VRB05KT P6SM SKC
      AMD LTD TO CLD VIS AND WIND=



000
FTUS45 KSLC 080525
TAFOGD
TAF
KOGD 080525Z 0806/0906 17003KT 4SM BR SKC
     FM080900 17003KT 2SM BR SKC
     FM081500 17004KT 5SM BR SCT150
     FM081800 30004KT 6SM HZ FEW150
     FM090300 17005KT 3SM BR SKC=



000
FTUS45 KSLC 080525
TAFENV
TAF
KENV 080525Z 0806/0906 VRB05KT P6SM SKC
      AMD LTD TO CLD VIS AND WIND=



000
FTUS45 KSLC 080525
TAFBCE
TAF
KBCE 080525Z 0806/0906 33009KT P6SM SKC
     FM081800 34006KT P6SM SKC
     FM090100 33011KT P6SM SKC=



000
FTUS45 KSLC 080525
TAFOGD
TAF
KOGD 080525Z 0806/0906 17003KT 4SM BR SKC
     FM080900 17003KT 2SM BR SKC
     FM081500 17004KT 5SM BR SCT150
     FM081800 30004KT 6SM HZ FEW150
     FM090300 17005KT 3SM BR SKC=



000
FTUS45 KSLC 080525
TAFLGU
TAF
KLGU 080525Z 0806/0906 00000KT 2SM BR SCT007
      TEMPO 0806/0807 1/2SM FZFG VV004
     FM080700 00000KT 1/4SM FZFG BKN002
     FM081800 VRB03KT 5SM BR FEW150
     FM090300 00000KT 1/4SM FZFG VV005=



000
FTUS45 KSLC 080525
TAFPVU
TAF
KPVU 080525Z 0806/0906 00000KT P6SM FEW200
     FM080800 00000KT 3SM BR FEW200
     FM081800 26005KT 6SM HZ FEW200
     FM090500 00000KT 3SM BR SKC
      AMD LTD TO CLD VIS AND WIND=



000
FTUS45 KSLC 080525
TAFCDC
TAF
KCDC 080525Z 0806/0906 VRB04KT P6SM SKC=



000
FTUS45 KSLC 080525
TAFSLC
TAF
KSLC 080525Z 0806/0912 15006KT 3SM BR FEW200
     FM081800 33006KT 6SM HZ FEW200
     FM090300 15004KT 3SM BR SKC=



000
FTUS45 KSLC 080525
TAFSLC
TAF
KSLC 080525Z 0806/0912 15006KT 3SM BR FEW200
     FM081800 33006KT 6SM HZ FEW200
     FM090300 15004KT 3SM BR SKC=



000
FTUS45 KSLC 080525
TAFLGU
TAF
KLGU 080525Z 0806/0906 00000KT 2SM BR SCT007
      TEMPO 0806/0807 1/2SM FZFG VV004
     FM080700 00000KT 1/4SM FZFG BKN002
     FM081800 VRB03KT 5SM BR FEW150
     FM090300 00000KT 1/4SM FZFG VV005=



000
FTUS45 KSLC 080525
TAFENV
TAF
KENV 080525Z 0806/0906 VRB05KT P6SM SKC
      AMD LTD TO CLD VIS AND WIND=



000
FTUS45 KSLC 080525
TAFBCE
TAF
KBCE 080525Z 0806/0906 33009KT P6SM SKC
     FM081800 34006KT P6SM SKC
     FM090100 33011KT P6SM SKC=



000
FTUS45 KSLC 080525
TAFENV
TAF
KENV 080525Z 0806/0906 VRB05KT P6SM SKC
      AMD LTD TO CLD VIS AND WIND=



000
FTUS45 KSLC 080424 AAB
TAFSGU
TAF AMD
KSGU 080424Z 0804/0824 06010G18KT P6SM SKC
     FM080800 05009KT P6SM SKC
      AMD LTD TO CLD VIS AND WIND=



000
FTUS45 KSLC 080419 AAA
TAFLGU
TAF AMD
KLGU 080419Z 0804/0824 00000KT 1SM BR VV009
      TEMPO 0804/0807 1/2SM FZFG VV004
     FM080700 00000KT 1/4SM FZFG BKN002
     FM081700 VRB03KT 5SM BR SCT002 SCT150=



000
FTUS45 KSLC 080252 AAB
TAFSLC
TAF AMD
KSLC 080252Z 0803/0906 34006KT 5SM BR SCT200
     FM080400 15006KT 3SM HZ FEW200
     FM081800 33006KT 6SM HZ SCT200=



000
FTUS45 KSLC 080252 AAB
TAFSLC
TAF AMD
KSLC 080252Z 0803/0906 34006KT 5SM BR SCT200
     FM080400 15006KT 3SM HZ FEW200
     FM081800 33006KT 6SM HZ SCT200=



000
FTUS45 KSLC 080252 AAB
TAFSLC
TAF AMD
KSLC 080252Z 0803/0906 34006KT 5SM BR SCT200
     FM080400 15006KT 3SM HZ FEW200
     FM081800 33006KT 6SM HZ SCT200=



000
FTUS45 KSLC 080251 AAA
TAFBCE
TAF AMD
KBCE 080251Z 0803/0824 30009KT P6SM SKC=



000
FTUS45 KSLC 080251 AAA
TAFBCE
TAF AMD
KBCE 080251Z 0803/0824 30009KT P6SM SKC=



000
FTUS45 KSLC 080251 AAA
TAFBCE
TAF AMD
KBCE 080251Z 0803/0824 30009KT P6SM SKC=



000
FTUS45 KSLC 080250 AAA
TAFSGU
TAF AMD
KSGU 080250Z 0803/0824 06009KT P6SM SKC
      AMD LTD TO CLD VIS AND WIND=



000
FTUS45 KSLC 080250 AAA
TAFSGU
TAF AMD
KSGU 080250Z 0803/0824 06009KT P6SM SKC
      AMD LTD TO CLD VIS AND WIND=



000
FTUS45 KSLC 080250 AAA
TAFSGU
TAF AMD
KSGU 080250Z 0803/0824 06009KT P6SM SKC
      AMD LTD TO CLD VIS AND WIND=



000
FTUS45 KSLC 072336
TAFLGU
TAF
KLGU 072336Z 0800/0824 VRB03KT 6SM HZ FEW050 SCT150
     FM080200 00000KT 3SM BR SKC
     FM080700 00000KT 1/4SM FZFG BKN002
     FM081700 VRB03KT 5SM BR SCT002 SCT150=



000
FTUS45 KSLC 072336
TAFLGU
TAF
KLGU 072336Z 0800/0824 VRB03KT 6SM HZ FEW050 SCT150
     FM080200 00000KT 3SM BR SKC
     FM080700 00000KT 1/4SM FZFG BKN002
     FM081700 VRB03KT 5SM BR SCT002 SCT150=



000
FTUS45 KSLC 072336
TAFSLC
TAF
KSLC 072336Z 0800/0906 34005KT 6SM HZ SCT050 SCT200
      TEMPO 0800/0802 5SM HZ
     FM080300 15006KT 3SM HZ FEW200
     FM081800 33006KT 6SM HZ SCT200=



000
FTUS45 KSLC 072336
TAFLGU
TAF
KLGU 072336Z 0800/0824 VRB03KT 6SM HZ FEW050 SCT150
     FM080200 00000KT 3SM BR SKC
     FM080700 00000KT 1/4SM FZFG BKN002
     FM081700 VRB03KT 5SM BR SCT002 SCT150=



000
FTUS45 KSLC 072336
TAFBCE
TAF
KBCE 072336Z 0800/0824 02018KT P6SM SKC
     FM080300 30011KT P6SM SKC=



000
FTUS45 KSLC 072336
TAFSLC
TAF
KSLC 072336Z 0800/0906 34005KT 6SM HZ SCT050 SCT200
      TEMPO 0800/0802 5SM HZ
     FM080300 15006KT 3SM HZ FEW200
     FM081800 33006KT 6SM HZ SCT200=



000
FTUS45 KSLC 072336
TAFSGU
TAF
KSGU 072336Z 0800/0824 VRB04KT P6SM SKC
      AMD LTD TO CLD VIS AND WIND=



000
FTUS45 KSLC 072336
TAFCDC
TAF
KCDC 072336Z 0800/0824 VRB04KT P6SM SKC=



000
FTUS45 KSLC 072336
TAFENV
TAF
KENV 072336Z 0800/0824 VRB03KT P6SM FEW200
     FM081500 16005KT P6SM FEW200
      AMD LTD TO CLD VIS AND WIND=



000
FTUS45 KSLC 072336
TAFOGD
TAF
KOGD 072336Z 0800/0824 31006KT 4SM HZ FEW150
     FM080600 17003KT 4SM BR SKC
     FM080900 17003KT 2SM BR SKC
     FM081500 17004KT 5SM BR SCT150=



000
FTUS45 KSLC 072336
TAFPVU
TAF
KPVU 072336Z 0800/0824 VRB03KT 6SM HZ FEW200
     FM080300 00000KT 4SM BR FEW200
     FM081200 VRB04KT 3SM BR FEW180
     FM081800 26005KT 5SM HZ FEW180
      AMD LTD TO CLD VIS AND WIND=



000
FTUS45 KSLC 072336
TAFSGU
TAF
KSGU 072336Z 0800/0824 VRB04KT P6SM SKC
      AMD LTD TO CLD VIS AND WIND=



000
FTUS45 KSLC 072336
TAFSGU
TAF
KSGU 072336Z 0800/0824 VRB04KT P6SM SKC
      AMD LTD TO CLD VIS AND WIND=



000
FTUS45 KSLC 072336
TAFPVU
TAF
KPVU 072336Z 0800/0824 VRB03KT 6SM HZ FEW200
     FM080300 00000KT 4SM BR FEW200
     FM081200 VRB04KT 3SM BR FEW180
     FM081800 26005KT 5SM HZ FEW180
      AMD LTD TO CLD VIS AND WIND=



000
FTUS45 KSLC 072336
TAFENV
TAF
KENV 072336Z 0800/0824 VRB03KT P6SM FEW200
     FM081500 16005KT P6SM FEW200
      AMD LTD TO CLD VIS AND WIND=



000
FTUS45 KSLC 072336
TAFCDC
TAF
KCDC 072336Z 0800/0824 VRB04KT P6SM SKC=



000
FTUS45 KSLC 072336
TAFBCE
TAF
KBCE 072336Z 0800/0824 02018KT P6SM SKC
     FM080300 30011KT P6SM SKC=



000
FTUS45 KSLC 072336
TAFCDC
TAF
KCDC 072336Z 0800/0824 VRB04KT P6SM SKC=



000
FTUS45 KSLC 072336
TAFOGD
TAF
KOGD 072336Z 0800/0824 31006KT 4SM HZ FEW150
     FM080600 17003KT 4SM BR SKC
     FM080900 17003KT 2SM BR SKC
     FM081500 17004KT 5SM BR SCT150=



000
FTUS45 KSLC 072336
TAFPVU
TAF
KPVU 072336Z 0800/0824 VRB03KT 6SM HZ FEW200
     FM080300 00000KT 4SM BR FEW200
     FM081200 VRB04KT 3SM BR FEW180
     FM081800 26005KT 5SM HZ FEW180
      AMD LTD TO CLD VIS AND WIND=



000
FTUS45 KSLC 072336
TAFBCE
TAF
KBCE 072336Z 0800/0824 02018KT P6SM SKC
     FM080300 30011KT P6SM SKC=



000
FTUS45 KSLC 072336
TAFENV
TAF
KENV 072336Z 0800/0824 VRB03KT P6SM FEW200
     FM081500 16005KT P6SM FEW200
      AMD LTD TO CLD VIS AND WIND=



000
FTUS45 KSLC 072336
TAFSLC
TAF
KSLC 072336Z 0800/0906 34005KT 6SM HZ SCT050 SCT200
      TEMPO 0800/0802 5SM HZ
     FM080300 15006KT 3SM HZ FEW200
     FM081800 33006KT 6SM HZ SCT200=



000
FTUS45 KSLC 072336
TAFOGD
TAF
KOGD 072336Z 0800/0824 31006KT 4SM HZ FEW150
     FM080600 17003KT 4SM BR SKC
     FM080900 17003KT 2SM BR SKC
     FM081500 17004KT 5SM BR SCT150=



000
FTUS45 KSLC 072254 AAB
TAFLGU
TAF AMD
KLGU 072254Z 0723/0818 VRB03KT 6SM HZ FEW050 SCT150
     FM080300 00000KT 3SM BR SKC
     FM080800 00000KT 1/4SM FZFG BKN002
     FM081600 VRB03KT 5SM BR SCT002 SCT150=



000
FTUS45 KSLC 072104 AAB
TAFSLC
TAF AMD
KSLC 072104Z 0721/0824 34005KT 5SM HZ SCT050 SCT200
     FM080300 15006KT 3SM HZ FEW200
     FM081800 33006KT 6SM HZ SCT200=



000
FTUS45 KSLC 071923 AAA
TAFBCE
TAF AMD
KBCE 071923Z 0719/0818 02010KT P6SM SKC
     FM080300 30005KT P6SM SKC=



000
FTUS45 KSLC 071923 AAB
TAFSLC
TAF AMD
KSLC 071923Z 0719/0824 15005KT 5SM HZ SCT050 SCT200
     FM072100 35006KT P6SM SCT200
     FM080300 15006KT 6SM HZ FEW200
     FM080900 15006KT 4SM HZ SCT200
     FM081800 33006KT 6SM HZ SCT200=



000
FTUS45 KSLC 071922 AAA
TAFLGU
TAF AMD
KLGU 071922Z 0719/0818 VRB03KT 3SM HZ SCT045
     FM072300 VRB03KT 6SM HZ FEW050 SCT150
     FM080300 00000KT 2SM BR SKC
     FM080800 00000KT 1/4SM FZFG BKN002
     FM081600 VRB03KT 5SM BR SCT002 SCT150=



000
FTUS45 KSLC 071922 AAA
TAFLGU
TAF AMD
KLGU 071922Z 0719/0818 VRB03KT 3SM HZ SCT045
     FM072300 VRB03KT 6SM HZ FEW050 SCT150
     FM080300 00000KT 2SM BR SKC
     FM080800 00000KT 1/4SM FZFG BKN002
     FM081600 VRB03KT 5SM BR SCT002 SCT150=



000
FTUS45 KSLC 071922 AAA
TAFOGD
TAF AMD
KOGD 071922Z 0719/0818 28005KT 5SM BR FEW150
     FM072200 31006KT 6SM BR FEW150
     FM080600 17003KT 4SM BR SKC
     FM080900 17003KT 2SM BR SKC
     FM081500 17004KT 5SM BR SCT150=



000
FTUS45 KSLC 071720
TAFPVU
TAF
KPVU 071720Z 0718/0818 00000KT 5SM HZ FEW200
     FM071900 VRB03KT 6SM HZ FEW200
     FM080300 00000KT 4SM BR FEW200
      AMD LTD TO CLD VIS AND WIND=



000
FTUS45 KSLC 071720
TAFLGU
TAF
KLGU 071720Z 0718/0818 VRB03KT 3SM BR BCFG SCT045
     FM071900 VRB03KT 6SM HZ FEW050 SCT150
     FM080300 00000KT 2SM BR SKC
     FM080800 00000KT 1/4SM FZFG BKN002
     FM081600 VRB03KT 5SM BR SCT002 SCT150=



000
FTUS45 KSLC 071720
TAFSLC
TAF
KSLC 071720Z 0718/0824 15005KT 5SM HZ SCT050 SCT200
     FM071900 35006KT P6SM SCT200
     FM080300 15006KT 6SM HZ FEW200
     FM080900 15006KT 4SM HZ SCT200
     FM081800 33006KT 6SM HZ SCT200=



000
FTUS45 KSLC 071720
TAFBCE
TAF
KBCE 071720Z 0718/0818 VRB03KT P6SM SKC
     FM072000 34010KT P6SM SKC
     FM080300 30005KT P6SM SKC=



000
FTUS45 KSLC 071720
TAFCDC
TAF
KCDC 071720Z 0718/0818 VRB04KT P6SM SKC=



000
FTUS45 KSLC 071720
TAFENV
TAF
KENV 071720Z 0718/0818 VRB03KT P6SM FEW200
      AMD LTD TO CLD VIS AND WIND=



000
FTUS45 KSLC 071720
TAFOGD
TAF
KOGD 071720Z 0718/0818 28005KT P6SM FEW150
     FM080600 17003KT 4SM BR SKC
     FM080900 17003KT 2SM BR SKC
     FM081500 17004KT 5SM BR SCT150=



000
FTUS45 KSLC 071720
TAFSGU
TAF
KSGU 071720Z 0718/0818 VRB04KT P6SM SKC
      AMD LTD TO CLD VIS AND WIND=



000
FTUS45 KSLC 071626 AAC
TAFLGU
TAF AMD
KLGU 071626Z 0716/0812 VRB03KT 3SM BR BCFG BKN045
     FM071900 VRB03KT P6SM FEW150
     FM080300 00000KT 2SM BR SKC
     FM080800 00000KT 1/4SM FZFG BKN002=



000
FTUS45 KSLC 071626 AAC
TAFLGU
TAF AMD
KLGU 071626Z 0716/0812 VRB03KT 3SM BR BCFG BKN045
     FM071900 VRB03KT P6SM FEW150
     FM080300 00000KT 2SM BR SKC
     FM080800 00000KT 1/4SM FZFG BKN002=



000
FTUS45 KSLC 071626 AAC
TAFLGU
TAF AMD
KLGU 071626Z 0716/0812 VRB03KT 3SM BR BCFG BKN045
     FM071900 VRB03KT P6SM FEW150
     FM080300 00000KT 2SM BR SKC
     FM080800 00000KT 1/4SM FZFG BKN002=



000
FTUS45 KSLC 071626 AAC
TAFSLC
TAF AMD
KSLC 071626Z 0716/0818 15005KT 4SM HZ SCT050 SCT200
     FM071800 35006KT P6SM SCT200
     FM080300 15006KT 6SM HZ FEW200=



000
FTUS45 KSLC 071626 AAC
TAFSLC
TAF AMD
KSLC 071626Z 0716/0818 15005KT 4SM HZ SCT050 SCT200
     FM071800 35006KT P6SM SCT200
     FM080300 15006KT 6SM HZ FEW200=



000
FTUS45 KSLC 071531 AAB
TAFLGU
TAF AMD
KLGU 071531Z 0716/0812 VRB03KT 2SM BR BCFG BKN045
     FM071700 VRB03KT P6SM FEW150
     FM080300 00000KT 2SM BR SKC
     FM080800 00000KT 1/4SM FZFG BKN002=



000
FTUS45 KSLC 071453 AAB
TAFPVU
TAF AMD
KPVU 071453Z 0715/0812 00000KT 5SM BR BCFG FEW200
     FM071800 VRB03KT 6SM HZ FEW200
     FM080300 00000KT 4SM BR FEW200
      AMD LTD TO CLD VIS AND WIND=



000
FTUS45 KSLC 071453 AAA
TAFCDC
TAF AMD
KCDC 071453Z 0715/0812 VRB04KT P6SM SKC=



000
FTUS45 KSLC 071453 AAB
TAFPVU
TAF AMD
KPVU 071453Z 0715/0812 00000KT 5SM BR BCFG FEW200
     FM071800 VRB03KT 6SM HZ FEW200
     FM080300 00000KT 4SM BR FEW200
      AMD LTD TO CLD VIS AND WIND=



000
FTUS45 KSLC 071453 AAA
TAFCDC
TAF AMD
KCDC 071453Z 0715/0812 VRB04KT P6SM SKC=



000
FTUS45 KSLC 071453 AAB
TAFPVU
TAF AMD
KPVU 071453Z 0715/0812 00000KT 5SM BR BCFG FEW200
     FM071800 VRB03KT 6SM HZ FEW200
     FM080300 00000KT 4SM BR FEW200
      AMD LTD TO CLD VIS AND WIND=



000
FTUS45 KSLC 071453 AAA
TAFCDC
TAF AMD
KCDC 071453Z 0715/0812 VRB04KT P6SM SKC=



000
FTUS45 KSLC 071452 AAB
TAFSLC
TAF AMD
KSLC 071452Z 0715/0818 15005KT 6SM HZ SCT050 BKN200
     FM071800 35006KT P6SM SCT200
     FM080300 15006KT 6SM HZ FEW200=



000
FTUS45 KSLC 071341 AAA
TAFPVU
TAF AMD
KPVU 071341Z 0714/0812 00000KT 5SM BR BCFG FEW200
      TEMPO 0714/0716 1SM BR
     FM071800 VRB03KT 6SM HZ FEW200
     FM080300 00000KT 4SM BR FEW200
      AMD LTD TO CLD VIS AND WIND=



000
FTUS45 KSLC 071338 AAA
TAFLGU
TAF AMD
KLGU 071338Z 0714/0812 VRB03KT 6SM BR BCFG BKN045
     FM071700 VRB03KT P6SM FEW150
     FM080300 00000KT 2SM BR SKC
     FM080800 00000KT 1/4SM FZFG BKN002=



000
FTUS45 KSLC 071131
TAFCDC
TAF
KCDC 071131Z 0712/0812 05004KT P6SM SKC
      TEMPO 0712/0715 5SM BR SKC=



000
FTUS45 KSLC 071131
TAFLGU
TAF
KLGU 071131Z 0712/0812 VRB03KT 3SM BR BCFG BKN150
     FM071700 VRB03KT P6SM FEW150
     FM080300 00000KT 2SM BR SKC
     FM080800 00000KT 1/4SM FZFG BKN002=



000
FTUS45 KSLC 071131
TAFSGU
TAF
KSGU 071131Z 0712/0812 VRB04KT P6SM SKC
      AMD LTD TO CLD VIS AND WIND=



000
FTUS45 KSLC 071131
TAFSLC
TAF
KSLC 071131Z 0712/0818 15005KT P6SM SCT200
     FM071800 35006KT P6SM SCT200
     FM080300 15006KT 6SM HZ FEW200=



000
FTUS45 KSLC 071131
TAFOGD
TAF
KOGD 071131Z 0712/0812 17006KT P6SM BKN150
     FM071700 28006KT 5SM BR FEW150
     FM080300 17003KT 4SM BR SKC
     FM080900 17003KT 2SM BR SKC=



000
FTUS45 KSLC 071131
TAFENV
TAF
KENV 071131Z 0712/0812 VRB03KT P6SM FEW200
      AMD LTD TO CLD VIS AND WIND=



000
FTUS45 KSLC 071131
TAFPVU
TAF
KPVU 071131Z 0712/0812 00000KT 5SM BR FEW200
     FM071800 VRB03KT 6SM HZ FEW200
     FM080300 00000KT 4SM BR FEW200
      AMD LTD TO CLD VIS AND WIND=



000
FTUS45 KSLC 071131
TAFBCE
TAF
KBCE 071131Z 0712/0812 27008KT P6SM SKC
     FM071600 34010KT P6SM SKC
     FM080100 30005KT P6SM SKC=



000
FTUS45 KSLC 071131
TAFSLC
TAF
KSLC 071131Z 0712/0818 15005KT P6SM SCT200
     FM071800 35006KT P6SM SCT200
     FM080300 15006KT 6SM HZ FEW200=



000
FTUS45 KSLC 071131
TAFPVU
TAF
KPVU 071131Z 0712/0812 00000KT 5SM BR FEW200
     FM071800 VRB03KT 6SM HZ FEW200
     FM080300 00000KT 4SM BR FEW200
      AMD LTD TO CLD VIS AND WIND=



000
FTUS45 KSLC 071131
TAFLGU
TAF
KLGU 071131Z 0712/0812 VRB03KT 3SM BR BCFG BKN150
     FM071700 VRB03KT P6SM FEW150
     FM080300 00000KT 2SM BR SKC
     FM080800 00000KT 1/4SM FZFG BKN002=



000
FTUS45 KSLC 071131
TAFSGU
TAF
KSGU 071131Z 0712/0812 VRB04KT P6SM SKC
      AMD LTD TO CLD VIS AND WIND=



000
FTUS45 KSLC 071131
TAFOGD
TAF
KOGD 071131Z 0712/0812 17006KT P6SM BKN150
     FM071700 28006KT 5SM BR FEW150
     FM080300 17003KT 4SM BR SKC
     FM080900 17003KT 2SM BR SKC=



000
FTUS45 KSLC 071131
TAFBCE
TAF
KBCE 071131Z 0712/0812 27008KT P6SM SKC
     FM071600 34010KT P6SM SKC
     FM080100 30005KT P6SM SKC=



000
FTUS45 KSLC 071131
TAFENV
TAF
KENV 071131Z 0712/0812 VRB03KT P6SM FEW200
      AMD LTD TO CLD VIS AND WIND=



000
FTUS45 KSLC 071131
TAFCDC
TAF
KCDC 071131Z 0712/0812 05004KT P6SM SKC
      TEMPO 0712/0715 5SM BR SKC=



000
FTUS45 KSLC 071030 AAB
TAFLGU
TAF AMD
KLGU 071030Z 0711/0806 VRB03KT 5SM BR BCFG BKN150
     FM071700 VRB03KT P6SM SCT150
     FM080300 00000KT 2SM BR SCT060 SCT200=



000
FTUS45 KSLC 070850 AAB
TAFSLC
TAF AMD
KSLC 070850Z 0709/0812 15005KT P6SM SCT060 BKN200
     FM071800 35006KT P6SM SCT090 SCT200
     FM080300 15006KT 6SM HZ SCT090 SCT200=



000
FTUS45 KSLC 070740 AAA
TAFOGD
TAF AMD
KOGD 070740Z 0708/0806 17003KT P6SM SCT090 BKN110
     FM071700 28006KT 5SM BR SCT090 SCT150
     FM080300 17003KT 4SM BR FEW150=



000
FTUS45 KSLC 070740 AAA
TAFOGD
TAF AMD
KOGD 070740Z 0708/0806 17003KT P6SM SCT090 BKN110
     FM071700 28006KT 5SM BR SCT090 SCT150
     FM080300 17003KT 4SM BR FEW150=



000
FTUS45 KSLC 070740 AAA
TAFOGD
TAF AMD
KOGD 070740Z 0708/0806 17003KT P6SM SCT090 BKN110
     FM071700 28006KT 5SM BR SCT090 SCT150
     FM080300 17003KT 4SM BR FEW150=



000
FTUS45 KSLC 070739 AAA
TAFLGU
TAF AMD
KLGU 070739Z 0708/0806 VRB03KT 5SM BR BCFG SCT060 BKN120
     FM071100 00000KT 2SM BR BKN120
     FM071700 VRB03KT 5SM HZ SCT200
     FM080300 00000KT 2SM BR SCT060 SCT200=



000
FTUS45 KSLC 070739 AAA
TAFLGU
TAF AMD
KLGU 070739Z 0708/0806 VRB03KT 5SM BR BCFG SCT060 BKN120
     FM071100 00000KT 2SM BR BKN120
     FM071700 VRB03KT 5SM HZ SCT200
     FM080300 00000KT 2SM BR SCT060 SCT200=



000
FTUS45 KSLC 070739 AAA
TAFLGU
TAF AMD
KLGU 070739Z 0708/0806 VRB03KT 5SM BR BCFG SCT060 BKN120
     FM071100 00000KT 2SM BR BKN120
     FM071700 VRB03KT 5SM HZ SCT200
     FM080300 00000KT 2SM BR SCT060 SCT200=



000
FTUS45 KSLC 070522
TAFOGD
TAF
KOGD 070522Z 0706/0806 17003KT 5SM BR SCT090 BKN150
     FM071700 28006KT 5SM BR SCT090 SCT150
     FM080300 17003KT 4SM BR FEW150=



000
FTUS45 KSLC 070522
TAFENV
TAF
KENV 070522Z 0706/0806 VRB03KT P6SM BKN200
      AMD LTD TO CLD VIS AND WIND=



000
FTUS45 KSLC 070522
TAFSLC
TAF
KSLC 070522Z 0706/0812 15005KT P6SM SCT060 BKN200
     FM071000 15005KT 6SM BR BCFG SCT090 SCT200
     FM071800 35006KT P6SM SCT090 SCT200
     FM080300 15006KT 6SM BR SCT090 SCT200=



000
FTUS45 KSLC 070522
TAFPVU
TAF
KPVU 070522Z 0706/0806 00000KT P6SM BKN200
     FM071000 00000KT 4SM BR SCT002 SCT200
     FM071800 VRB03KT 6SM HZ SCT200
     FM080300 00000KT 4SM BR FEW200
      AMD LTD TO CLD VIS AND WIND=



000
FTUS45 KSLC 070522
TAFSGU
TAF
KSGU 070522Z 0706/0806 VRB04KT P6SM SKC
      AMD LTD TO CLD VIS AND WIND=



000
FTUS45 KSLC 070522
TAFLGU
TAF
KLGU 070522Z 0706/0806 VRB03KT 2SM BR BCFG SCT060 BKN120
     FM070800 00000KT 1/4SM FZFG VV001
     FM071700 VRB03KT 5SM HZ SCT200
     FM080300 00000KT 2SM BR SCT060 SCT200=



000
FTUS45 KSLC 070522
TAFCDC
TAF
KCDC 070522Z 0706/0806 VRB04KT P6SM SKC=



000
FTUS45 KSLC 070522
TAFBCE
TAF
KBCE 070522Z 0706/0806 27008KT P6SM SKC
     FM071800 34010KT P6SM FEW200
     FM080100 30005KT P6SM SKC=



000
FTUS45 KSLC 070443 AAB
TAFLGU
TAF AMD
KLGU 070443Z 0705/0724 VRB03KT 2SM BR BCFG SCT060 BKN120
     FM070830 00000KT 1/4SM FZFG VV001
     FM071600 VRB03KT 5SM HZ SCT200=



000
FTUS45 KSLC 070443 AAB
TAFLGU
TAF AMD
KLGU 070443Z 0705/0724 VRB03KT 2SM BR BCFG SCT060 BKN120
     FM070830 00000KT 1/4SM FZFG VV001
     FM071600 VRB03KT 5SM HZ SCT200=



000
FTUS45 KSLC 070443 AAB
TAFLGU
TAF AMD
KLGU 070443Z 0705/0724 VRB03KT 2SM BR BCFG SCT060 BKN120
     FM070830 00000KT 1/4SM FZFG VV001
     FM071600 VRB03KT 5SM HZ SCT200=



000
FTUS45 KSLC 070442 AAC
TAFSLC
TAF AMD
KSLC 070442Z 0705/0806 15005KT P6SM SCT060 BKN200
     FM071000 15005KT 6SM BR BCFG SCT090 SCT200
     FM071800 35006KT P6SM SCT090 SCT200
     FM080300 15006KT 6SM BR SCT090 SCT200=



000
FTUS45 KSLC 070442 AAC
TAFSLC
TAF AMD
KSLC 070442Z 0705/0806 15005KT P6SM SCT060 BKN200
     FM071000 15005KT 6SM BR BCFG SCT090 SCT200
     FM071800 35006KT P6SM SCT090 SCT200
     FM080300 15006KT 6SM BR SCT090 SCT200=



000
FTUS45 KSLC 070442 AAC
TAFSLC
TAF AMD
KSLC 070442Z 0705/0806 15005KT P6SM SCT060 BKN200
     FM071000 15005KT 6SM BR BCFG SCT090 SCT200
     FM071800 35006KT P6SM SCT090 SCT200
     FM080300 15006KT 6SM BR SCT090 SCT200=



000
FTUS45 KSLC 070255 AAB
TAFSLC
TAF AMD
KSLC 070255Z 0703/0806 33006KT P6SM SCT060 BKN200
     FM070400 15005KT P6SM SCT090 BKN200
     FM071000 15005KT 6SM BR SCT090 SCT200
     FM071800 35006KT P6SM SCT090 SCT200
     FM080300 15006KT 6SM BR SCT090 SCT200=



000
FTUS45 KSLC 070255 AAB
TAFSLC
TAF AMD
KSLC 070255Z 0703/0806 33006KT P6SM SCT060 BKN200
     FM070400 15005KT P6SM SCT090 BKN200
     FM071000 15005KT 6SM BR SCT090 SCT200
     FM071800 35006KT P6SM SCT090 SCT200
     FM080300 15006KT 6SM BR SCT090 SCT200=



000
FTUS45 KSLC 070255 AAB
TAFSLC
TAF AMD
KSLC 070255Z 0703/0806 33006KT P6SM SCT060 BKN200
     FM070400 15005KT P6SM SCT090 BKN200
     FM071000 15005KT 6SM BR SCT090 SCT200
     FM071800 35006KT P6SM SCT090 SCT200
     FM080300 15006KT 6SM BR SCT090 SCT200=



000
FTUS45 KSLC 070232 AAA
TAFLGU
TAF AMD
KLGU 070232Z 0703/0724 VRB03KT 1SM BR BCFG BKN200
     FM070330 00000KT 1/4SM FZFG VV001
     FM071600 VRB03KT 5SM HZ SCT200=



000
FTUS45 KSLC 070232 AAA
TAFLGU
TAF AMD
KLGU 070232Z 0703/0724 VRB03KT 1SM BR BCFG BKN200
     FM070330 00000KT 1/4SM FZFG VV001
     FM071600 VRB03KT 5SM HZ SCT200=



000
FTUS45 KSLC 062320
TAFENV
TAF
KENV 062320Z 0700/0724 VRB03KT P6SM BKN200
      AMD LTD TO CLD VIS AND WIND=



000
FTUS45 KSLC 062320
TAFCDC
TAF
KCDC 062320Z 0700/0724 VRB04KT P6SM SCT200=



000
FTUS45 KSLC 062320
TAFPVU
TAF
KPVU 062320Z 0700/0724 00000KT P6SM SCT090 BKN200
     FM070800 00000KT 4SM BR SCT002 SCT200
     FM071800 VRB03KT 6SM HZ SCT090 SCT200
      AMD LTD TO CLD VIS AND WIND=



000
FTUS45 KSLC 062320
TAFOGD
TAF
KOGD 062320Z 0700/0724 29005KT 6SM HZ SCT090 BKN200
     FM070300 17005KT 5SM BR SCT090 BKN150
     FM071700 28006KT 6SM HZ SCT090 SCT150=



000
FTUS45 KSLC 062320
TAFLGU
TAF
KLGU 062320Z 0700/0724 VRB03KT 6SM HZ SCT090 BKN200
     FM070100 VRB03KT 3SM BR BCFG BKN200
     FM070500 00000KT 1/4SM FZFG VV001
     FM071600 VRB03KT 5SM HZ SCT200=



000
FTUS45 KSLC 062320
TAFOGD
TAF
KOGD 062320Z 0700/0724 29005KT 6SM HZ SCT090 BKN200
     FM070300 17005KT 5SM BR SCT090 BKN150
     FM071700 28006KT 6SM HZ SCT090 SCT150=



000
FTUS45 KSLC 062320
TAFLGU
TAF
KLGU 062320Z 0700/0724 VRB03KT 6SM HZ SCT090 BKN200
     FM070100 VRB03KT 3SM BR BCFG BKN200
     FM070500 00000KT 1/4SM FZFG VV001
     FM071600 VRB03KT 5SM HZ SCT200=



000
FTUS45 KSLC 062320
TAFSLC
TAF
KSLC 062320Z 0700/0806 33006KT P6SM SCT090 BKN200
     FM070300 15005KT P6SM SCT090 BKN200
     FM071000 15005KT 6SM BR SCT090 SCT200
     FM071800 35006KT P6SM SCT090 SCT200
     FM080300 15006KT 6SM BR SCT090 SCT200=



000
FTUS45 KSLC 062320
TAFSGU
TAF
KSGU 062320Z 0700/0724 VRB05KT P6SM SCT200
      AMD LTD TO CLD VIS AND WIND=



000
FTUS45 KSLC 062320
TAFSLC
TAF
KSLC 062320Z 0700/0806 33006KT P6SM SCT090 BKN200
     FM070300 15005KT P6SM SCT090 BKN200
     FM071000 15005KT 6SM BR SCT090 SCT200
     FM071800 35006KT P6SM SCT090 SCT200
     FM080300 15006KT 6SM BR SCT090 SCT200=



000
FTUS45 KSLC 062320
TAFPVU
TAF
KPVU 062320Z 0700/0724 00000KT P6SM SCT090 BKN200
     FM070800 00000KT 4SM BR SCT002 SCT200
     FM071800 VRB03KT 6SM HZ SCT090 SCT200
      AMD LTD TO CLD VIS AND WIND=



000
FTUS45 KSLC 062320
TAFBCE
TAF
KBCE 062320Z 0700/0724 27005KT P6SM SCT200
     FM071800 34007KT P6SM SCT200=



000
FTUS45 KSLC 062320
TAFCDC
TAF
KCDC 062320Z 0700/0724 VRB04KT P6SM SCT200=



000
FTUS45 KSLC 062320
TAFENV
TAF
KENV 062320Z 0700/0724 VRB03KT P6SM BKN200
      AMD LTD TO CLD VIS AND WIND=



000
FTUS45 KSLC 062320
TAFOGD
TAF
KOGD 062320Z 0700/0724 29005KT 6SM HZ SCT090 BKN200
     FM070300 17005KT 5SM BR SCT090 BKN150
     FM071700 28006KT 6SM HZ SCT090 SCT150=



000
FTUS45 KSLC 062320
TAFLGU
TAF
KLGU 062320Z 0700/0724 VRB03KT 6SM HZ SCT090 BKN200
     FM070100 VRB03KT 3SM BR BCFG BKN200
     FM070500 00000KT 1/4SM FZFG VV001
     FM071600 VRB03KT 5SM HZ SCT200=



000
FTUS45 KSLC 062320
TAFSGU
TAF
KSGU 062320Z 0700/0724 VRB05KT P6SM SCT200
      AMD LTD TO CLD VIS AND WIND=



000
FTUS45 KSLC 062320
TAFSLC
TAF
KSLC 062320Z 0700/0806 33006KT P6SM SCT090 BKN200
     FM070300 15005KT P6SM SCT090 BKN200
     FM071000 15005KT 6SM BR SCT090 SCT200
     FM071800 35006KT P6SM SCT090 SCT200
     FM080300 15006KT 6SM BR SCT090 SCT200=



000
FTUS45 KSLC 062320
TAFPVU
TAF
KPVU 062320Z 0700/0724 00000KT P6SM SCT090 BKN200
     FM070800 00000KT 4SM BR SCT002 SCT200
     FM071800 VRB03KT 6SM HZ SCT090 SCT200
      AMD LTD TO CLD VIS AND WIND=



000
FTUS45 KSLC 062320
TAFBCE
TAF
KBCE 062320Z 0700/0724 27005KT P6SM SCT200
     FM071800 34007KT P6SM SCT200=



000
FTUS45 KSLC 062320
TAFENV
TAF
KENV 062320Z 0700/0724 VRB03KT P6SM BKN200
      AMD LTD TO CLD VIS AND WIND=



    US Dept of Commerce
    National Oceanic and Atmospheric Administration
    National Weather Service
    1325 East West Highway
    Silver Spring, MD 20910
    Page Author: NWS Internet Services Team
Disclaimer
Information Quality
Credits
Glossary
Privacy Policy
Freedom of Information Act (FOIA)
About Us
Career Opportunities